Terminal Aerodrome Forecast
Issued by NWS

Home | Current Version | Previous Version | Text Only | Print | Product List | Glossary On
Versions: 1 2 3 4 5 6 7 8 9 10 11 12
000
FTUS45 KRIW 252300
TAFBPI
TAF
KBPI 252333Z 2600/2624 VRB06KT P6SM VCSH SCT040 BKN060
     FM260400 34007KT P6SM SCT060
     FM261000 VRB05KT P6SM VCFG SCT010 BKN040
     FM261600 VRB06KT P6SM SCT040 BKN080=

USA.gov is the U.S. government's official web portal to all federal, state and local government web resources and services.